Time,TemperatureF,DewpointF,PressureIn,WindDirection,WindDirectionDegrees,WindSpeedMPH,WindSpeedGustMPH,Humidity,HourlyPrecipIn,Conditions,Clouds,dailyrainin,SoftwareType,DateUTC
2013-03-31 00:03:00,50.0,-99.9,-100.00,SW,235,0.0,0.0,79,-99.99,,,-99.99,,2013-03-31 04:03:00,
2013-03-31 00:13:00,50.0,44.0,-100.00,West,275,0.0,0.0,80,-99.99,,,-99.99,,2013-03-31 04:13:00,
2013-03-31 00:23:00,50.0,44.0,-100.00,WNW,290,0.0,0.0,80,-99.99,,,-99.99,,2013-03-31 04:23:00,
2013-03-31 00:33:00,51.0,44.0,-100.00,WSW,250,0.0,1.0,79,-99.99,,,-99.99,,2013-03-31 04:33:00,
2013-03-31 00:42:00,51.0,45.0,-100.00,SW,235,0.0,1.0,79,-99.99,,,-99.99,,2013-03-31 04:42:00,
2013-03-31 00:52:00,51.0,45.0,-100.00,NW,315,1.0,3.0,80,-99.99,,,-99.99,,2013-03-31 04:52:00,
2013-03-31 01:02:00,51.0,47.0,-100.00,SSW,205,1.0,3.0,85,-99.99,,,-99.99,,2013-03-31 05:02:00,
2013-03-31 01:13:00,51.0,47.0,-100.00,SW,225,0.0,4.0,87,-99.99,,,-99.99,,2013-03-31 05:13:00,
2013-03-31 01:22:00,50.0,48.0,-100.00,East,95,0.0,0.0,92,-99.99,,,-99.99,,2013-03-31 05:22:00,
2013-03-31 01:32:00,50.0,49.0,-100.00,East,95,0.0,1.0,96,-99.99,,,-99.99,,2013-03-31 05:32:00,
2013-03-31 01:42:00,50.0,50.0,-100.00,ESE,120,1.0,2.0,99,-99.99,,,-99.99,,2013-03-31 05:42:00,
2013-03-31 01:53:00,49.0,49.0,-100.00,ENE,70,0.0,1.0,99,-99.99,,,-99.99,,2013-03-31 05:53:00,
2013-03-31 02:02:00,49.0,49.0,-100.00,East,80,0.0,0.0,99,-99.99,,,-99.99,,2013-03-31 06:02:00,
2013-03-31 02:12:00,49.0,49.0,-100.00,East,100,0.0,0.0,99,-99.99,,,-99.99,,2013-03-31 06:12:00,
2013-03-31 02:23:00,49.0,49.0,-100.00,North,0,1.0,1.0,99,-99.99,,,-99.99,,2013-03-31 06:23:00,
2013-03-31 02:33:00,49.0,47.0,-100.00,North,10,2.0,4.0,93,-99.99,,,-99.99,,2013-03-31 06:33:00,
2013-03-31 02:42:00,49.0,47.0,-100.00,SW,215,0.0,1.0,93,-99.99,,,-99.99,,2013-03-31 06:42:00,
2013-03-31 02:52:00,49.0,47.0,-100.00,WNW,300,0.0,0.0,93,-99.99,,,-99.99,,2013-03-31 06:52:00,
2013-03-31 03:02:00,49.0,47.0,-100.00,East,80,1.0,2.0,93,-99.99,,,-99.99,,2013-03-31 07:02:00,
2013-03-31 03:12:00,49.0,48.0,-100.00,North,0,0.0,4.0,95,-99.99,,,-99.99,,2013-03-31 07:12:00,
2013-03-31 03:22:00,49.0,48.0,-100.00,NNW,340,2.0,3.0,95,-99.99,,,-99.99,,2013-03-31 07:22:00,
2013-03-31 03:33:00,49.0,48.0,-100.00,NNW,340,2.0,3.0,95,-99.99,,,-99.99,,2013-03-31 07:33:00,
2013-03-31 03:43:00,49.0,48.0,-100.00,SE,145,1.0,3.0,95,-99.99,,,-99.99,,2013-03-31 07:43:00,
2013-03-31 03:52:00,49.0,48.0,-100.00,East,90,1.0,4.0,95,-99.99,,,-99.99,,2013-03-31 07:52:00,
2013-03-31 04:02:00,49.0,49.0,-100.00,ENE,60,2.0,4.0,98,-99.99,,,-99.99,,2013-03-31 08:02:00,
2013-03-31 04:12:00,49.0,49.0,-100.00,East,95,0.0,3.0,98,-99.99,,,-99.99,,2013-03-31 08:12:00,
2013-03-31 04:22:00,49.0,49.0,-100.00,North,10,0.0,0.0,98,-99.99,,,-99.99,,2013-03-31 08:22:00,
2013-03-31 04:32:00,49.0,49.0,-100.00,NNW,330,0.0,2.0,98,-99.99,,,-99.99,,2013-03-31 08:32:00,
2013-03-31 04:42:00,49.0,49.0,-100.00,NE,40,0.0,3.0,98,-99.99,,,-99.99,,2013-03-31 08:42:00,
2013-03-31 04:52:00,49.0,49.0,-100.00,North,10,0.0,1.0,98,-99.99,,,-99.99,,2013-03-31 08:52:00,
2013-03-31 05:02:00,49.0,49.0,-100.00,NNW,335,0.0,0.0,98,-99.99,,,-99.99,,2013-03-31 09:02:00,
2013-03-31 05:12:00,49.0,49.0,-100.00,South,185,0.0,0.0,98,-99.99,,,-99.99,,2013-03-31 09:12:00,
2013-03-31 05:22:00,49.0,49.0,-100.00,South,185,0.0,0.0,98,-99.99,,,-99.99,,2013-03-31 09:22:00,
2013-03-31 05:33:00,49.0,49.0,-100.00,WNW,300,0.0,2.0,98,-99.99,,,-99.99,,2013-03-31 09:33:00,
2013-03-31 05:43:00,49.0,49.0,-100.00,SE,135,1.0,1.0,98,-99.99,,,-99.99,,2013-03-31 09:43:00,
2013-03-31 05:53:00,49.0,49.0,-100.00,East,90,0.0,0.0,98,-99.99,,,-99.99,,2013-03-31 09:53:00,
2013-03-31 06:03:00,49.0,49.0,-100.00,NE,50,0.0,0.0,98,-99.99,,,-99.99,,2013-03-31 10:03:00,
2013-03-31 06:13:00,49.0,49.0,-100.00,East,95,0.0,0.0,98,-99.99,,,-99.99,,2013-03-31 10:13:00,
2013-03-31 06:24:00,49.0,49.0,-100.00,East,100,0.0,1.0,98,-99.99,,,-99.99,,2013-03-31 10:24:00,
2013-03-31 06:33:00,49.0,49.0,-100.00,ESE,115,0.0,0.0,99,-99.99,,,-99.99,,2013-03-31 10:33:00,
2013-03-31 06:42:00,49.0,49.0,-100.00,SE,125,0.0,0.0,98,-99.99,,,-99.99,,2013-03-31 10:42:00,
2013-03-31 06:53:00,49.0,49.0,-100.00,East,95,0.0,0.0,99,-99.99,,,-99.99,,2013-03-31 10:53:00,
2013-03-31 07:03:00,49.0,49.0,-100.00,East,95,1.0,1.0,99,-99.99,,,-99.99,,2013-03-31 11:03:00,
2013-03-31 07:12:00,49.0,49.0,-100.00,NE,40,1.0,2.0,99,-99.99,,,-99.99,,2013-03-31 11:12:00,
2013-03-31 07:23:00,49.0,49.0,-100.00,East,80,1.0,4.0,98,-99.99,,,-99.99,,2013-03-31 11:23:00,
2013-03-31 07:33:00,49.0,49.0,-100.00,ENE,75,1.0,4.0,99,-99.99,,,-99.99,,2013-03-31 11:33:00,
2013-03-31 07:42:00,49.0,49.0,-100.00,NE,40,0.0,1.0,99,-99.99,,,-99.99,,2013-03-31 11:42:00,
2013-03-31 07:52:00,49.0,49.0,-100.00,NNE,20,0.0,1.0,99,-99.99,,,-99.99,,2013-03-31 11:52:00,
2013-03-31 08:03:00,49.0,49.0,-100.00,NE,45,1.0,1.0,99,-99.99,,,-99.99,,2013-03-31 12:03:00,
2013-03-31 08:12:00,49.0,49.0,-100.00,ENE,65,1.0,3.0,99,-99.99,,,-99.99,,2013-03-31 12:12:00,
2013-03-31 08:22:00,49.0,49.0,-100.00,ENE,75,0.0,1.0,99,-99.99,,,-99.99,,2013-03-31 12:22:00,
2013-03-31 08:33:00,49.0,49.0,-100.00,ENE,75,0.0,1.0,99,-99.99,,,-99.99,,2013-03-31 12:33:00,
2013-03-31 08:42:00,49.0,49.0,-100.00,SE,125,0.0,1.0,99,-99.99,,,-99.99,,2013-03-31 12:42:00,
2013-03-31 08:52:00,49.0,49.0,-100.00,SE,125,0.0,1.0,99,-99.99,,,-99.99,,2013-03-31 12:52:00,
2013-03-31 09:02:00,50.0,49.0,-100.00,SSE,160,1.0,1.0,99,-99.99,,,-99.99,,2013-03-31 13:02:00,
2013-03-31 09:12:00,50.0,50.0,-100.00,SSE,160,0.0,1.0,99,-99.99,,,-99.99,,2013-03-31 13:12:00,
2013-03-31 09:23:00,50.0,50.0,-100.00,SSW,200,0.0,1.0,99,-99.99,,,-99.99,,2013-03-31 13:23:00,
2013-03-31 09:32:00,50.0,50.0,-100.00,SSW,200,0.0,1.0,99,-99.99,,,-99.99,,2013-03-31 13:32:00,
2013-03-31 09:42:00,50.0,50.0,-100.00,NNE,20,0.0,1.0,99,-99.99,,,-99.99,,2013-03-31 13:42:00,
2013-03-31 09:52:00,50.0,50.0,-100.00,NNE,20,0.0,4.0,99,-99.99,,,-99.99,,2013-03-31 13:52:00,
2013-03-31 10:03:00,50.0,50.0,-100.00,NNE,30,1.0,3.0,99,-99.99,,,-99.99,,2013-03-31 14:03:00,
2013-03-31 10:12:00,50.0,50.0,-100.00,NNE,30,1.0,4.0,99,-99.99,,,-99.99,,2013-03-31 14:12:00,
2013-03-31 10:22:00,50.0,50.0,-100.00,NNE,15,0.0,4.0,99,-99.99,,,-99.99,,2013-03-31 14:22:00,
2013-03-31 10:33:00,51.0,50.0,-100.00,NE,55,1.0,2.0,99,-99.99,,,-99.99,,2013-03-31 14:33:00,
2013-03-31 10:43:00,51.0,51.0,-100.00,ESE,120,1.0,3.0,98,-99.99,,,-99.99,,2013-03-31 14:43:00,
2013-03-31 10:52:00,51.0,51.0,-100.00,ESE,120,1.0,3.0,98,-99.99,,,-99.99,,2013-03-31 14:52:00,
2013-03-31 11:03:00,53.0,51.0,-100.00,SW,225,0.0,2.0,94,-99.99,,,-99.99,,2013-03-31 15:03:00,
2013-03-31 11:13:00,54.0,54.0,-100.00,SW,230,2.0,6.0,99,-99.99,,,-99.99,,2013-03-31 15:13:00,
2013-03-31 11:23:00,56.0,56.0,-100.00,SW,235,4.0,9.0,99,-99.99,,,-99.99,,2013-03-31 15:23:00,
2013-03-31 11:34:00,57.0,57.0,-100.00,SW,230,4.0,8.0,99,-99.99,,,-99.99,,2013-03-31 15:34:00,
2013-03-31 11:43:00,57.0,57.0,-100.00,WSW,255,5.0,14.0,99,-99.99,,,-99.99,,2013-03-31 15:43:00,
2013-03-31 11:53:00,59.0,58.0,-100.00,ENE,75,1.0,4.0,99,-99.99,,,-99.99,,2013-03-31 15:53:00,
2013-03-31 12:03:00,59.0,58.0,-100.00,South,185,4.0,11.0,99,-99.99,,,-99.99,,2013-03-31 16:03:00,
2013-03-31 12:13:00,60.0,60.0,-100.00,SW,215,4.0,10.0,98,-99.99,,,-99.99,,2013-03-31 16:13:00,
2013-03-31 12:23:00,62.0,59.0,-100.00,WSW,245,6.0,14.0,93,-99.99,,,-99.99,,2013-03-31 16:23:00,
2013-03-31 12:33:00,63.0,59.0,-100.00,SSW,200,7.0,14.0,88,-99.99,,,-99.99,,2013-03-31 16:33:00,
2013-03-31 12:43:00,63.0,58.0,-100.00,SW,220,8.0,14.0,85,-99.99,,,-99.99,,2013-03-31 16:43:00,
2013-03-31 12:53:00,64.0,58.0,-100.00,SW,225,7.0,16.0,82,-99.99,,,-99.99,,2013-03-31 16:53:00,
2013-03-31 13:03:00,65.0,58.0,-100.00,SW,235,8.0,17.0,77,-99.99,,,-99.99,,2013-03-31 17:03:00,
2013-03-31 13:13:00,66.0,57.0,-100.00,SW,225,10.0,16.0,73,-99.99,,,-99.99,,2013-03-31 17:13:00,
2013-03-31 13:23:00,67.0,57.0,-100.00,SSW,210,9.0,19.0,70,-99.99,,,-99.99,,2013-03-31 17:23:00,
2013-03-31 13:32:00,68.0,56.0,-100.00,SW,235,9.0,16.0,65,-99.99,,,-99.99,,2013-03-31 17:32:00,
2013-03-31 13:43:00,68.0,56.0,-100.00,SW,225,9.0,18.0,66,-99.99,,,-99.99,,2013-03-31 17:43:00,
2013-03-31 13:52:00,68.0,55.0,-100.00,SW,235,9.0,17.0,64,-99.99,,,-99.99,,2013-03-31 17:52:00,
2013-03-31 14:03:00,70.0,55.0,-100.00,SW,220,9.0,17.0,60,-99.99,,,-99.99,,2013-03-31 18:03:00,
2013-03-31 14:13:00,70.0,55.0,-100.00,SW,220,9.0,17.0,60,-99.99,,,-99.99,,2013-03-31 18:13:00,
2013-03-31 14:22:00,68.0,55.0,-100.00,SW,230,10.0,17.0,63,-99.99,,,-99.99,,2013-03-31 18:22:00,
2013-03-31 14:33:00,68.0,55.0,-100.00,SW,235,7.0,16.0,63,-99.99,,,-99.99,,2013-03-31 18:33:00,
2013-03-31 14:42:00,69.0,55.0,-100.00,WSW,245,5.0,12.0,61,-99.99,,,-99.99,,2013-03-31 18:42:00,
2013-03-31 14:52:00,70.0,55.0,-100.00,SW,225,7.0,14.0,59,-99.99,,,-99.99,,2013-03-31 18:52:00,
2013-03-31 15:03:00,69.0,54.0,-100.00,SW,230,9.0,17.0,59,-99.99,,,-99.99,,2013-03-31 19:03:00,
2013-03-31 15:12:00,68.0,53.0,-100.00,SW,220,4.0,13.0,59,-99.99,,,-99.99,,2013-03-31 19:12:00,
2013-03-31 15:22:00,70.0,54.0,-100.00,SW,225,9.0,13.0,57,-99.99,,,-99.99,,2013-03-31 19:22:00,
2013-03-31 15:33:00,69.0,53.0,-100.00,SSW,210,7.0,18.0,58,-99.99,,,-99.99,,2013-03-31 19:33:00,
2013-03-31 15:43:00,68.0,53.0,-100.00,SW,230,10.0,16.0,58,-99.99,,,-99.99,,2013-03-31 19:43:00,
2013-03-31 15:53:00,69.0,54.0,-100.00,SW,235,9.0,16.0,58,-99.99,,,-99.99,,2013-03-31 19:53:00,
2013-03-31 16:03:00,71.0,54.0,-100.00,SW,225,6.0,15.0,56,-99.99,,,-99.99,,2013-03-31 20:03:00,
2013-03-31 16:13:00,69.0,54.0,-100.00,SW,220,8.0,14.0,57,-99.99,,,-99.99,,2013-03-31 20:13:00,
2013-03-31 16:23:00,69.0,53.0,-100.00,SW,235,5.0,16.0,58,-99.99,,,-99.99,,2013-03-31 20:23:00,
2013-03-31 16:34:00,66.0,54.0,-100.00,SW,225,8.0,14.0,66,-99.99,,,-99.99,,2013-03-31 20:34:00,
2013-03-31 16:43:00,64.0,58.0,-100.00,SW,225,1.0,6.0,79,-99.99,,,-99.99,,2013-03-31 20:43:00,
2013-03-31 16:52:00,64.0,57.0,-100.00,SSW,200,3.0,9.0,78,-99.99,,,-99.99,,2013-03-31 20:52:00,
2013-03-31 17:03:00,64.0,55.0,-100.00,SSW,205,8.0,12.0,72,-99.99,,,-99.99,,2013-03-31 21:03:00,
2013-03-31 17:13:00,65.0,55.0,-100.00,SSW,210,7.0,15.0,70,-99.99,,,-99.99,,2013-03-31 21:13:00,
2013-03-31 17:22:00,65.0,55.0,-100.00,SW,230,6.0,11.0,69,-99.99,,,-99.99,,2013-03-31 21:22:00,
2013-03-31 17:34:00,64.0,56.0,-100.00,SW,230,10.0,21.0,75,-99.99,,,-99.99,,2013-03-31 21:34:00,
2013-03-31 17:43:00,61.0,58.0,-100.00,SSW,205,7.0,13.0,89,-99.99,,,-99.99,,2013-03-31 21:43:00,
2013-03-31 17:53:00,60.0,60.0,-100.00,SW,230,4.0,11.0,98,-99.99,,,-99.99,,2013-03-31 21:53:00,
2013-03-31 18:04:00,60.0,60.0,-100.00,SW,220,3.0,6.0,99,-99.99,,,-99.99,,2013-03-31 22:04:00,
2013-03-31 18:13:00,60.0,59.0,-100.00,SW,230,4.0,11.0,99,-99.99,,,-99.99,,2013-03-31 22:13:00,
2013-03-31 18:24:00,60.0,60.0,-100.00,SW,230,6.0,9.0,99,-99.99,,,-99.99,,2013-03-31 22:24:00,
2013-03-31 18:33:00,60.0,60.0,-100.00,SSW,200,2.0,10.0,99,-99.99,,,-99.99,,2013-03-31 22:33:00,
2013-03-31 18:43:00,60.0,60.0,-100.00,SW,225,4.0,10.0,99,-99.99,,,-99.99,,2013-03-31 22:43:00,
2013-03-31 18:53:00,60.0,60.0,-100.00,SW,225,3.0,7.0,99,-99.99,,,-99.99,,2013-03-31 22:53:00,
2013-03-31 19:03:00,60.0,60.0,-100.00,SW,225,4.0,6.0,99,-99.99,,,-99.99,,2013-03-31 23:03:00,
2013-03-31 19:13:00,60.0,60.0,-100.00,SSW,210,5.0,10.0,99,-99.99,,,-99.99,,2013-03-31 23:13:00,
2013-03-31 19:22:00,60.0,60.0,-100.00,SW,220,4.0,10.0,99,-99.99,,,-99.99,,2013-03-31 23:22:00,
2013-03-31 19:33:00,60.0,60.0,-100.00,SW,220,4.0,10.0,99,-99.99,,,-99.99,,2013-03-31 23:33:00,
2013-03-31 19:43:00,60.0,60.0,-100.00,SW,235,6.0,14.0,99,-99.99,,,-99.99,,2013-03-31 23:43:00,
2013-03-31 19:53:00,60.0,60.0,-100.00,SW,235,6.0,14.0,99,-99.99,,,-99.99,,2013-03-31 23:53:00,
2013-03-31 20:02:00,60.0,60.0,-100.00,SW,235,4.0,9.0,99,-99.99,,,-99.99,,2013-04-01 00:02:00,
2013-03-31 20:13:00,60.0,60.0,-100.00,WSW,245,5.0,9.0,99,-99.99,,,-99.99,,2013-04-01 00:13:00,
2013-03-31 20:22:00,60.0,60.0,-100.00,WSW,245,5.0,9.0,99,-99.99,,,-99.99,,2013-04-01 00:22:00,
2013-03-31 20:32:00,59.0,59.0,-100.00,SW,235,5.0,8.0,99,-99.99,,,-99.99,,2013-04-01 00:32:00,
2013-03-31 20:43:00,59.0,59.0,-100.00,SW,235,5.0,8.0,99,-99.99,,,-99.99,,2013-04-01 00:43:00,
2013-03-31 20:53:00,59.0,59.0,-100.00,SW,235,4.0,7.0,99,-99.99,,,-99.99,,2013-04-01 00:53:00,
2013-03-31 21:03:00,59.0,59.0,-100.00,WSW,240,4.0,6.0,99,-99.99,,,-99.99,,2013-04-01 01:03:00,
2013-03-31 21:13:00,59.0,59.0,-100.00,SW,235,4.0,8.0,99,-99.99,,,-99.99,,2013-04-01 01:13:00,
2013-03-31 21:23:00,59.0,59.0,-100.00,SW,235,4.0,9.0,99,-99.99,,,-99.99,,2013-04-01 01:23:00,
2013-03-31 21:33:00,59.0,59.0,-100.00,SW,230,3.0,6.0,99,-99.99,,,-99.99,,2013-04-01 01:33:00,
2013-03-31 21:42:00,59.0,59.0,-100.00,SW,225,4.0,6.0,99,-99.99,,,-99.99,,2013-04-01 01:42:00,
2013-03-31 21:52:00,59.0,58.0,-100.00,SW,230,4.0,6.0,99,-99.99,,,-99.99,,2013-04-01 01:52:00,
2013-03-31 22:03:00,58.0,58.0,-100.00,WSW,240,3.0,6.0,99,-99.99,,,-99.99,,2013-04-01 02:03:00,
2013-03-31 22:13:00,58.0,58.0,-100.00,SW,230,3.0,5.0,99,-99.99,,,-99.99,,2013-04-01 02:13:00,
2013-03-31 22:23:00,58.0,58.0,-100.00,SW,225,4.0,5.0,99,-99.99,,,-99.99,,2013-04-01 02:23:00,
2013-03-31 22:33:00,59.0,58.0,-100.00,SW,230,4.0,9.0,99,-99.99,,,-99.99,,2013-04-01 02:33:00,
2013-03-31 22:42:00,59.0,58.0,-100.00,SW,225,4.0,6.0,99,-99.99,,,-99.99,,2013-04-01 02:42:00,
2013-03-31 22:52:00,59.0,58.0,-100.00,SW,220,4.0,7.0,99,-99.99,,,-99.99,,2013-04-01 02:52:00,
2013-03-31 23:03:00,59.0,59.0,-100.00,SW,215,4.0,9.0,99,-99.99,,,-99.99,,2013-04-01 03:03:00,
2013-03-31 23:12:00,59.0,59.0,-100.00,SW,220,4.0,8.0,99,-99.99,,,-99.99,,2013-04-01 03:12:00,
2013-03-31 23:23:00,59.0,59.0,-100.00,SW,235,4.0,6.0,99,-99.99,,,-99.99,,2013-04-01 03:23:00,
2013-03-31 23:34:00,59.0,58.0,-100.00,SW,225,4.0,6.0,99,-99.99,,,-99.99,,2013-04-01 03:34:00,
2013-03-31 23:43:00,59.0,58.0,-100.00,SW,225,4.0,6.0,99,-99.99,,,-99.99,,2013-04-01 03:43:00,
2013-03-31 23:53:00,59.0,58.0,-100.00,SW,225,3.0,10.0,99,-99.99,,,-99.99,,2013-04-01 03:53:00,